createdAt,value
2018-12-11T00:02:12.506Z,30.81
2018-12-11T00:04:41.047Z,30.81
2018-12-11T00:07:09.955Z,31.07
2018-12-11T00:09:38.506Z,31.05
2018-12-11T00:12:07.063Z,30.99
2018-12-11T00:14:35.684Z,31.44
2018-12-11T00:17:04.328Z,30.88
2018-12-11T00:19:32.809Z,31.47
2018-12-11T00:22:01.672Z,30.96
2018-12-11T00:24:30.362Z,30.91
2018-12-11T00:26:58.978Z,31.39
2018-12-11T00:29:27.671Z,31.57
2018-12-11T00:31:56.230Z,31.44
2018-12-11T00:34:24.943Z,30.76
2018-12-11T00:36:53.750Z,31.61
2018-12-11T00:39:22.302Z,30.89
2018-12-11T00:41:50.730Z,31.50
2018-12-11T00:44:19.382Z,31.53
2018-12-11T00:46:47.794Z,30.80
2018-12-11T00:49:16.458Z,31.25
2018-12-11T00:51:45.133Z,30.85
2018-12-11T00:54:13.685Z,31.67
2018-12-11T00:56:42.375Z,30.89
2018-12-11T00:59:11.010Z,30.89
2018-12-11T01:01:39.722Z,31.25
2018-12-11T01:04:08.262Z,31.46
2018-12-11T01:06:36.962Z,30.70
2018-12-11T01:09:07.082Z,31.37
2018-12-11T01:11:35.640Z,31.41
2018-12-11T01:14:04.418Z,30.83
2018-12-11T01:16:33.082Z,30.78
2018-12-11T01:19:01.745Z,31.23
2018-12-11T01:21:30.517Z,31.52
2018-12-11T01:23:59.188Z,31.37
2018-12-11T01:26:27.642Z,30.98
2018-12-11T01:28:56.374Z,30.87
2018-12-11T01:31:25.123Z,31.22
2018-12-11T01:33:53.730Z,31.34
2018-12-11T01:36:22.610Z,30.84
2018-12-11T01:38:51.450Z,30.77
2018-12-11T01:41:20.192Z,30.83
2018-12-11T01:43:48.892Z,31.33
2018-12-11T01:46:17.450Z,30.84
2018-12-11T01:48:46.130Z,30.98
2018-12-11T01:51:15.106Z,31.42
2018-12-11T01:53:43.654Z,30.79
2018-12-11T01:56:12.208Z,30.71
2018-12-11T01:58:41.004Z,30.73
2018-12-11T02:01:09.602Z,30.77
2018-12-11T02:03:38.412Z,30.74
2018-12-11T02:06:07.220Z,31.35
2018-12-11T02:08:35.986Z,30.81
2018-12-11T02:11:04.526Z,31.21
2018-12-11T02:13:33.326Z,30.91
2018-12-11T02:16:01.897Z,30.79
2018-12-11T02:18:30.434Z,31.22
2018-12-11T02:20:59.159Z,30.76
2018-12-11T02:23:27.734Z,30.88
2018-12-11T02:25:56.427Z,31.37
2018-12-11T02:28:25.302Z,31.24
2018-12-11T02:30:54.094Z,31.26
2018-12-11T02:33:22.850Z,31.34
2018-12-11T02:35:51.555Z,31.18
2018-12-11T02:38:20.007Z,31.22
2018-12-11T02:40:48.594Z,30.76
2018-12-11T02:43:17.183Z,30.73
2018-12-11T02:45:45.816Z,31.30
2018-12-11T02:48:14.369Z,31.55
2018-12-11T02:50:43.211Z,30.87
2018-12-11T02:53:11.822Z,30.74
2018-12-11T02:55:40.528Z,31.52
2018-12-11T02:58:09.147Z,31.23
2018-12-11T03:00:38.010Z,30.92
2018-12-11T03:03:06.554Z,31.03
2018-12-11T03:05:35.251Z,30.86
2018-12-11T03:08:03.962Z,30.75
2018-12-11T03:10:32.646Z,31.33
2018-12-11T03:13:01.312Z,31.37
2018-12-11T03:15:29.938Z,31.35
2018-12-11T03:17:58.702Z,31.41
2018-12-11T03:20:27.820Z,31.32
2018-12-11T03:22:56.351Z,31.45
2018-12-11T03:25:25.032Z,30.87
2018-12-11T03:27:53.830Z,31.45
2018-12-11T03:30:22.664Z,30.77
2018-12-11T03:32:51.356Z,31.14
2018-12-11T03:35:20.083Z,30.72
2018-12-11T03:37:48.566Z,30.81
2018-12-11T03:40:17.385Z,31.30
2018-12-11T03:42:46.086Z,30.87
2018-12-11T03:45:14.774Z,30.73
2018-12-11T03:47:43.268Z,31.42
2018-12-11T03:50:12.287Z,30.97
2018-12-11T03:52:40.730Z,30.80
2018-12-11T03:55:09.434Z,31.23
2018-12-11T03:57:38.295Z,31.50
2018-12-11T04:00:12.018Z,30.81
2018-12-11T04:02:40.706Z,30.82
2018-12-11T04:05:09.150Z,30.81
2018-12-11T04:07:37.716Z,30.96
2018-12-11T04:10:08.262Z,30.92
2018-12-11T04:12:36.996Z,30.75
2018-12-11T04:15:05.827Z,31.10
2018-12-11T04:17:34.540Z,30.78
2018-12-11T04:20:03.355Z,30.82
2018-12-11T04:22:32.031Z,31.50
2018-12-11T04:25:00.709Z,30.76
2018-12-11T04:27:29.382Z,31.43
2018-12-11T04:29:58.014Z,30.82
2018-12-11T04:32:26.645Z,30.75
2018-12-11T04:34:55.283Z,30.89
2018-12-11T04:37:23.991Z,31.33
2018-12-11T04:39:52.989Z,31.03
2018-12-11T04:42:21.562Z,30.82
2018-12-11T04:44:50.041Z,31.36
2018-12-11T04:47:18.630Z,31.49
2018-12-11T04:49:47.315Z,30.87
2018-12-11T04:52:15.998Z,30.82
2018-12-11T04:54:44.766Z,31.42
2018-12-11T04:57:13.530Z,30.79
2018-12-11T04:59:42.546Z,31.29
2018-12-11T05:02:11.102Z,31.14
2018-12-11T05:04:39.578Z,30.86
2018-12-11T05:07:08.137Z,30.87
2018-12-11T05:09:37.014Z,31.58
2018-12-11T05:12:05.721Z,30.87
2018-12-11T05:14:34.362Z,31.52
2018-12-11T05:17:03.175Z,30.86
2018-12-11T05:19:31.915Z,31.08
2018-12-11T05:22:00.602Z,31.44
2018-12-11T05:24:29.419Z,30.67
2018-12-11T05:26:58.044Z,30.94
2018-12-11T05:29:27.002Z,30.86
2018-12-11T05:31:55.806Z,31.47
2018-12-11T05:34:24.354Z,31.46
2018-12-11T05:36:52.915Z,31.40
2018-12-11T05:39:26.670Z,30.90
2018-12-11T05:41:55.118Z,31.44
2018-12-11T05:44:23.666Z,30.86
2018-12-11T05:46:52.278Z,30.89
2018-12-11T05:49:21.116Z,31.75
2018-12-11T05:51:49.675Z,30.79
2018-12-11T05:54:18.523Z,31.36
2018-12-11T05:56:47.078Z,31.15
2018-12-11T05:59:15.998Z,31.35
2018-12-11T06:01:45.010Z,31.12
2018-12-11T06:04:13.463Z,30.90
2018-12-11T06:06:42.555Z,30.83
2018-12-11T06:09:11.337Z,30.93
2018-12-11T06:11:40.082Z,30.87
2018-12-11T06:14:08.816Z,30.95
2018-12-11T06:16:37.716Z,31.55
2018-12-11T06:19:06.438Z,30.79
2018-12-11T06:21:34.986Z,31.29
2018-12-11T06:24:03.607Z,31.50
2018-12-11T06:26:32.192Z,31.06
2018-12-11T06:29:00.730Z,30.89
2018-12-11T06:31:29.637Z,31.56
2018-12-11T06:33:58.207Z,31.42
2018-12-11T06:36:26.816Z,31.36
2018-12-11T06:38:56.022Z,31.28
2018-12-11T06:41:25.055Z,31.48
2018-12-11T06:43:53.790Z,30.80
2018-12-11T06:46:22.499Z,30.86
2018-12-11T06:48:51.259Z,31.56
2018-12-11T06:51:19.830Z,31.36
2018-12-11T06:53:48.463Z,30.81
2018-12-11T06:56:17.019Z,30.86
2018-12-11T06:58:45.541Z,31.39
2018-12-11T07:01:14.362Z,31.48
2018-12-11T07:03:42.796Z,31.51
2018-12-11T07:06:11.230Z,31.73
2018-12-11T07:08:39.870Z,31.64
2018-12-11T07:11:08.498Z,31.49
2018-12-11T07:13:37.190Z,31.57
2018-12-11T07:16:07.426Z,32.12
2018-12-11T07:18:36.090Z,47.94
2018-12-11T07:21:04.778Z,56.09
2018-12-11T07:23:33.459Z,39.18
2018-12-11T07:26:02.195Z,37.56
2018-12-11T07:28:30.750Z,38.84
2018-12-11T07:30:59.474Z,38.12
2018-12-11T07:33:28.157Z,37.63
2018-12-11T07:35:56.778Z,37.00
2018-12-11T07:38:25.981Z,36.97
2018-12-11T07:40:54.723Z,36.11
2018-12-11T07:43:23.148Z,36.88
2018-12-11T07:45:51.911Z,37.41
2018-12-11T07:48:20.474Z,36.65
2018-12-11T07:50:49.088Z,37.50
2018-12-11T07:53:17.762Z,37.34
2018-12-11T07:55:46.478Z,37.26
2018-12-11T07:58:15.054Z,37.15
2018-12-11T08:00:43.836Z,37.52
2018-12-11T08:03:12.675Z,36.92
2018-12-11T08:05:41.367Z,36.60
2018-12-11T08:08:14.114Z,36.19
2018-12-11T08:10:42.790Z,36.22
2018-12-11T08:13:11.230Z,36.84
2018-12-11T08:15:39.920Z,36.76
2018-12-11T08:18:08.667Z,36.77
2018-12-11T08:20:37.551Z,36.44
2018-12-11T08:23:06.328Z,36.13
2018-12-11T08:25:34.762Z,36.26
2018-12-11T08:28:03.506Z,36.29
2018-12-11T08:30:32.441Z,36.17
2018-12-11T08:33:01.000Z,35.79
2018-12-11T08:35:29.458Z,35.99
2018-12-11T08:40:37.319Z,35.74
2018-12-11T08:43:05.985Z,35.27
2018-12-11T08:45:34.790Z,35.08
2018-12-11T08:48:03.361Z,35.52
2018-12-11T08:50:31.862Z,34.92
2018-12-11T08:53:00.443Z,35.29
2018-12-11T08:55:28.892Z,35.19
2018-12-11T08:57:57.587Z,35.08
2018-12-11T09:00:26.093Z,34.59
2018-12-11T09:02:54.702Z,34.62
2018-12-11T09:05:23.598Z,34.42
2018-12-11T09:07:52.044Z,34.25
2018-12-11T09:10:20.714Z,34.72
2018-12-11T09:12:49.444Z,34.74
2018-12-11T09:15:17.894Z,33.88
2018-12-11T09:17:46.334Z,33.95
2018-12-11T09:20:14.831Z,34.66
2018-12-11T09:22:43.384Z,33.88
2018-12-11T09:25:11.824Z,34.39
2018-12-11T09:27:40.610Z,33.75
2018-12-11T09:30:09.882Z,34.35
2018-12-11T09:32:38.328Z,34.16
2018-12-11T09:35:07.167Z,34.28
2018-12-11T09:37:35.657Z,33.98
2018-12-11T09:40:04.550Z,33.97
2018-12-11T09:42:35.024Z,33.36
2018-12-11T09:45:03.803Z,33.85
2018-12-11T09:47:32.243Z,33.68
2018-12-11T09:50:00.986Z,33.14
2018-12-11T09:52:29.447Z,33.64
2018-12-11T09:54:58.038Z,33.77
2018-12-11T09:57:26.715Z,33.65
2018-12-11T09:59:55.263Z,33.05
2018-12-11T10:02:23.815Z,33.61
2018-12-11T10:04:52.514Z,32.86
2018-12-11T10:07:21.164Z,33.49
2018-12-11T10:09:49.938Z,32.89
2018-12-11T10:12:18.494Z,33.36
2018-12-11T10:14:47.119Z,33.29
2018-12-11T10:17:15.686Z,33.30
2018-12-11T10:19:44.342Z,33.23
2018-12-11T10:22:12.914Z,33.32
2018-12-11T10:24:41.486Z,32.60
2018-12-11T10:27:10.087Z,32.51
2018-12-11T10:29:38.771Z,32.41
2018-12-11T10:32:07.198Z,32.42
2018-12-11T10:34:35.898Z,32.93
2018-12-11T10:37:04.470Z,32.48
2018-12-11T10:39:33.153Z,33.04
2018-12-11T10:42:01.663Z,32.36
2018-12-11T10:44:30.235Z,32.34
2018-12-11T10:46:58.827Z,32.82
2018-12-11T10:49:27.707Z,32.73
2018-12-11T10:51:56.186Z,32.08
2018-12-11T10:54:24.611Z,32.56
2018-12-11T10:56:53.459Z,32.37
2018-12-11T10:59:22.528Z,32.71
2018-12-11T11:01:53.830Z,32.78
2018-12-11T11:04:23.470Z,32.67
2018-12-11T11:06:52.053Z,31.97
2018-12-11T11:09:21.074Z,31.74
2018-12-11T11:11:49.518Z,32.29
2018-12-11T11:14:17.988Z,32.70
2018-12-11T11:16:46.750Z,31.79
2018-12-11T11:19:15.519Z,32.41
2018-12-11T11:21:44.058Z,32.47
2018-12-11T11:24:12.563Z,31.79
2018-12-11T11:26:41.121Z,31.83
2018-12-11T11:29:09.938Z,31.75
2018-12-11T11:31:38.531Z,32.05
2018-12-11T11:34:06.963Z,31.74
2018-12-11T11:36:35.515Z,32.24
2018-12-11T11:39:06.065Z,31.68
2018-12-11T11:41:34.614Z,32.33
2018-12-11T11:44:03.172Z,31.57
2018-12-11T11:46:31.938Z,31.92
2018-12-11T11:49:00.581Z,32.11
2018-12-11T11:51:29.147Z,32.19
2018-12-11T11:53:57.643Z,31.37
2018-12-11T11:56:26.306Z,31.96
2018-12-11T11:58:55.084Z,31.87
2018-12-11T12:01:23.778Z,32.15
2018-12-11T12:03:52.351Z,32.01
2018-12-11T12:06:20.895Z,32.26
2018-12-11T12:08:49.478Z,31.28
2018-12-11T12:13:57.555Z,31.98
2018-12-11T12:16:26.070Z,31.43
2018-12-11T12:18:54.642Z,31.99
2018-12-11T12:21:23.166Z,31.90
2018-12-11T12:23:51.587Z,31.96
2018-12-11T12:26:20.126Z,31.94
2018-12-11T12:28:48.850Z,31.95
2018-12-11T12:31:18.155Z,31.18
2018-12-11T12:33:46.640Z,31.74
2018-12-11T12:36:15.346Z,31.31
2018-12-11T12:38:43.897Z,31.44
2018-12-11T12:41:12.573Z,31.83
2018-12-11T12:43:41.071Z,31.71
2018-12-11T12:46:09.626Z,31.83
2018-12-11T12:48:38.067Z,31.09
2018-12-11T12:51:06.599Z,31.25
2018-12-11T12:53:35.157Z,31.12
2018-12-11T12:56:03.602Z,31.24
2018-12-11T12:58:32.354Z,31.74
2018-12-11T13:01:01.127Z,31.17
2018-12-11T13:03:30.031Z,31.27
2018-12-11T13:05:58.626Z,31.09
2018-12-11T13:08:27.306Z,30.89
2018-12-11T13:10:55.806Z,30.98
2018-12-11T13:13:24.699Z,31.00
2018-12-11T13:15:53.123Z,30.93
2018-12-11T13:18:21.561Z,31.23
2018-12-11T13:20:50.167Z,31.48
2018-12-11T13:23:18.622Z,30.96
2018-12-11T13:25:47.795Z,30.80
2018-12-11T13:28:16.278Z,30.94
2018-12-11T13:30:44.930Z,31.43
2018-12-11T13:33:13.366Z,31.47
2018-12-11T13:35:42.022Z,31.36
2018-12-11T13:38:10.585Z,31.48
2018-12-11T13:40:39.851Z,31.57
2018-12-11T13:43:08.986Z,30.83
2018-12-11T13:45:37.497Z,31.35
2018-12-11T13:48:06.174Z,30.55
2018-12-11T13:50:35.603Z,31.42
2018-12-11T13:53:04.102Z,31.42
2018-12-11T13:55:32.554Z,31.31
2018-12-11T13:58:01.298Z,31.24
2018-12-11T14:00:29.939Z,31.38
2018-12-11T14:02:58.370Z,31.18
2018-12-11T14:05:26.914Z,30.74
2018-12-11T14:07:55.682Z,31.30
2018-12-11T14:10:24.337Z,30.73
2018-12-11T14:12:53.055Z,31.17
2018-12-11T14:15:21.717Z,31.19
2018-12-11T14:17:50.210Z,31.20
2018-12-11T14:20:18.927Z,30.58
2018-12-11T14:22:47.374Z,30.52
2018-12-11T14:25:15.858Z,31.19
2018-12-11T14:27:44.408Z,31.24
2018-12-11T14:30:13.219Z,31.08
2018-12-11T14:32:41.651Z,30.50
2018-12-11T14:35:10.346Z,31.09
2018-12-11T14:37:38.834Z,30.46
2018-12-11T14:40:07.942Z,30.48
2018-12-11T14:42:36.614Z,30.59
2018-12-11T14:45:06.210Z,31.06
2018-12-11T14:47:34.730Z,31.06
2018-12-11T14:50:03.474Z,30.45
2018-12-11T14:52:32.225Z,30.38
2018-12-11T14:55:00.794Z,30.67
2018-12-11T14:57:31.361Z,30.98
2018-12-11T14:59:59.909Z,30.34
2018-12-11T15:02:29.540Z,30.87
2018-12-11T15:04:58.182Z,31.08
2018-12-11T15:07:26.726Z,30.70
2018-12-11T15:09:55.526Z,30.53
2018-12-11T15:12:24.242Z,30.51
2018-12-11T15:14:52.814Z,31.05
2018-12-11T15:17:21.450Z,30.94
2018-12-11T15:19:50.389Z,30.31
2018-12-11T15:22:18.882Z,30.77
2018-12-11T15:24:47.391Z,29.98
2018-12-11T15:27:15.987Z,30.99
2018-12-11T15:29:44.634Z,30.65
2018-12-11T15:32:13.178Z,30.43
2018-12-11T15:34:41.739Z,30.29
2018-12-11T15:37:10.298Z,30.27
2018-12-11T15:39:38.879Z,30.18
2018-12-11T15:42:07.482Z,30.75
2018-12-11T15:44:36.106Z,30.53
2018-12-11T15:47:04.602Z,30.55
2018-12-11T15:49:33.295Z,30.16
2018-12-11T15:52:01.725Z,30.18
2018-12-11T15:54:30.171Z,30.75
2018-12-11T15:56:59.302Z,30.63
2018-12-11T15:59:27.991Z,30.75
2018-12-11T16:01:56.442Z,30.53
2018-12-11T16:04:25.135Z,30.13
2018-12-11T16:06:53.568Z,30.14
2018-12-11T16:09:26.283Z,30.86
2018-12-11T16:11:54.898Z,29.88
2018-12-11T16:14:23.578Z,30.09
2018-12-11T16:16:52.159Z,30.07
2018-12-11T16:19:20.954Z,31.06
2018-12-11T16:21:49.566Z,30.51
2018-12-11T16:24:18.196Z,30.54
2018-12-11T16:26:46.681Z,30.10
2018-12-11T16:29:15.241Z,30.03
2018-12-11T16:31:43.831Z,30.02
2018-12-11T16:34:12.329Z,30.65
2018-12-11T16:36:40.891Z,30.05
2018-12-11T16:39:09.639Z,30.04
2018-12-11T16:41:38.083Z,30.59
2018-12-11T16:44:06.646Z,30.39
2018-12-11T16:46:35.271Z,29.88
2018-12-11T16:49:03.812Z,30.56
2018-12-11T16:51:32.247Z,29.84
2018-12-11T16:54:00.841Z,30.48
2018-12-11T16:56:29.286Z,29.80
2018-12-11T16:58:58.006Z,30.29
2018-12-11T17:01:26.681Z,29.92
2018-12-11T17:03:55.551Z,29.96
2018-12-11T17:06:24.038Z,29.90
2018-12-11T17:08:52.750Z,29.73
2018-12-11T17:11:21.186Z,30.36
2018-12-11T17:13:49.627Z,29.96
2018-12-11T17:16:18.271Z,29.91
2018-12-11T17:18:46.990Z,29.86
2018-12-11T17:21:15.619Z,29.71
2018-12-11T17:23:44.111Z,29.82
2018-12-11T17:26:12.694Z,29.86
2018-12-11T17:28:41.304Z,30.49
2018-12-11T17:31:09.940Z,29.88
2018-12-11T17:33:38.499Z,29.96
2018-12-11T17:36:06.991Z,29.82
2018-12-11T17:38:36.143Z,30.40
2018-12-11T17:41:04.603Z,30.20
2018-12-11T17:43:33.030Z,30.22
2018-12-11T17:46:01.744Z,30.47
2018-12-11T17:48:30.306Z,29.45
2018-12-11T17:50:59.084Z,30.55
2018-12-11T17:53:28.038Z,30.44
2018-12-11T17:55:56.499Z,30.20
2018-12-11T17:58:25.046Z,29.51
2018-12-11T18:00:53.791Z,29.43
2018-12-11T18:03:22.382Z,29.94
2018-12-11T18:05:51.105Z,29.92
2018-12-11T18:08:19.706Z,29.87
2018-12-11T18:10:48.418Z,29.89
2018-12-11T18:13:17.090Z,29.65
2018-12-11T18:15:45.580Z,28.96
2018-12-11T18:18:14.115Z,29.59
2018-12-11T18:20:42.670Z,29.50
2018-12-11T18:23:11.303Z,29.43
2018-12-11T18:25:39.935Z,29.34
2018-12-11T18:28:08.362Z,28.63
2018-12-11T18:30:37.083Z,28.65
2018-12-11T18:33:05.521Z,29.25
2018-12-11T18:35:34.300Z,29.09
2018-12-11T18:38:03.114Z,28.47
2018-12-11T18:40:31.809Z,28.86
2018-12-11T18:43:00.250Z,29.00
2018-12-11T18:45:28.955Z,28.61
2018-12-11T18:47:57.452Z,28.84
2018-12-11T18:50:25.998Z,28.23
2018-12-11T18:52:54.585Z,28.32
2018-12-11T18:55:23.238Z,28.54
2018-12-11T18:57:51.682Z,29.20
2018-12-11T19:00:20.202Z,28.51
2018-12-11T19:02:48.850Z,29.24
2018-12-11T19:05:17.344Z,29.16
2018-12-11T19:07:45.958Z,28.57
2018-12-11T19:10:14.420Z,29.30
2018-12-11T19:12:43.078Z,29.14
2018-12-11T19:15:11.712Z,28.72
2018-12-11T19:17:40.390Z,29.32
2018-12-11T19:20:08.871Z,28.71
2018-12-11T19:22:37.463Z,28.66
2018-12-11T19:25:08.309Z,28.67
2018-12-11T19:27:36.754Z,29.28
2018-12-11T19:30:06.078Z,28.82
2018-12-11T19:32:34.682Z,29.22
2018-12-11T19:35:04.416Z,28.81
2018-12-11T19:37:33.298Z,28.66
2018-12-11T19:40:02.247Z,28.77
2018-12-11T19:42:30.850Z,29.42
2018-12-11T19:44:59.430Z,28.93
2018-12-11T19:47:28.002Z,28.89
2018-12-11T19:49:56.558Z,28.93
2018-12-11T19:52:25.179Z,29.54
2018-12-11T19:54:53.747Z,29.32
2018-12-11T19:57:22.359Z,29.35
2018-12-11T19:59:50.863Z,29.44
2018-12-11T20:02:19.418Z,29.55
2018-12-11T20:04:48.018Z,29.54
2018-12-11T20:07:16.619Z,29.04
2018-12-11T20:09:50.174Z,29.53
2018-12-11T20:12:18.916Z,29.65
2018-12-11T20:14:47.436Z,29.53
2018-12-11T20:17:16.022Z,29.08
2018-12-11T20:19:44.691Z,29.50
2018-12-11T20:22:13.295Z,29.10
2018-12-11T20:24:41.792Z,28.99
2018-12-11T20:27:10.530Z,29.57
2018-12-11T20:29:39.125Z,28.59
2018-12-11T20:32:07.627Z,29.00
2018-12-11T20:34:36.385Z,28.98
2018-12-11T20:37:05.155Z,28.82
2018-12-11T20:39:33.703Z,29.37
2018-12-11T20:42:03.169Z,29.14
2018-12-11T20:44:31.622Z,29.52
2018-12-11T20:49:50.623Z,28.79
2018-12-11T20:52:19.068Z,28.99
2018-12-11T20:54:47.478Z,30.16
2018-12-11T20:57:15.990Z,29.23
2018-12-11T20:59:44.739Z,29.82
2018-12-11T21:02:13.177Z,29.23
2018-12-11T21:04:41.834Z,29.55
2018-12-11T21:07:10.475Z,29.72
2018-12-11T21:09:40.044Z,29.74
2018-12-11T21:12:09.832Z,29.73
2018-12-11T21:14:38.310Z,29.50
2018-12-11T21:17:06.726Z,29.12
2018-12-11T21:19:35.487Z,29.68
2018-12-11T21:22:04.864Z,29.26
2018-12-11T21:24:33.827Z,29.04
2018-12-11T21:27:02.435Z,29.10
2018-12-11T21:29:32.002Z,29.08
2018-12-11T21:32:00.678Z,28.86
2018-12-11T21:34:29.180Z,29.16
2018-12-11T21:36:57.675Z,28.79
2018-12-11T21:39:26.167Z,28.88
2018-12-11T21:41:54.827Z,29.50
2018-12-11T21:44:23.382Z,29.34
2018-12-11T21:46:51.842Z,28.85
2018-12-11T21:49:20.474Z,29.40
2018-12-11T21:51:48.902Z,29.62
2018-12-11T21:54:17.390Z,29.52
2018-12-11T21:56:45.991Z,29.64
2018-12-11T21:59:14.735Z,29.19
2018-12-11T22:01:43.378Z,29.83
2018-12-11T22:04:12.099Z,29.35
2018-12-11T22:06:40.730Z,29.50
2018-12-11T22:09:09.598Z,29.78
2018-12-11T22:11:38.091Z,29.22
2018-12-11T22:14:06.530Z,29.24
2018-12-11T22:16:34.950Z,29.75
2018-12-11T22:19:03.870Z,29.91
2018-12-11T22:21:32.366Z,29.35
2018-12-11T22:24:00.794Z,29.08
2018-12-11T22:26:29.274Z,29.15
2018-12-11T22:28:58.048Z,29.01
2018-12-11T22:31:26.847Z,29.64
2018-12-11T22:33:55.474Z,29.60
2018-12-11T22:36:24.039Z,29.79
2018-12-11T22:38:52.918Z,29.64
2018-12-11T22:41:21.515Z,29.77
2018-12-11T22:43:49.966Z,29.45
2018-12-11T22:46:18.794Z,29.56
2018-12-11T22:48:47.795Z,29.76
2018-12-11T22:51:16.682Z,29.65
2018-12-11T22:53:45.130Z,29.60
2018-12-11T22:56:13.886Z,29.33
2018-12-11T22:58:42.443Z,29.01
2018-12-11T23:01:11.070Z,29.07
2018-12-11T23:03:39.650Z,29.09
2018-12-11T23:06:08.070Z,29.15
2018-12-11T23:08:36.507Z,29.67
2018-12-11T23:11:05.227Z,29.50
2018-12-11T23:13:33.832Z,29.81
2018-12-11T23:16:02.427Z,29.61
2018-12-11T23:18:31.059Z,29.22
2018-12-11T23:20:59.670Z,29.05
2018-12-11T23:23:28.563Z,29.03
2018-12-11T23:25:57.106Z,29.16
2018-12-11T23:28:25.555Z,29.65
2018-12-11T23:30:54.313Z,29.61
2018-12-11T23:33:23.170Z,29.51
2018-12-11T23:35:51.610Z,29.06
2018-12-11T23:38:20.051Z,29.58
2018-12-11T23:40:48.868Z,29.30
2018-12-11T23:43:17.305Z,29.65
2018-12-11T23:45:45.790Z,29.62
2018-12-11T23:48:14.454Z,28.80
2018-12-11T23:50:43.170Z,28.98
2018-12-11T23:53:11.594Z,29.21
2018-12-11T23:55:40.306Z,29.47
2018-12-11T23:58:08.875Z,29.03
